• Join FlightAware (Why Join?)
  • Login
  • US Flag 
07:00AM EST


 

Airport Tracker/Info


-or-


 

Live Flight TrackerFlight Track Log ✈ GJS3706 ✈ 10-Sep-2013 ✈ KBTV - KORD

Flight Track Log - Related Links

Times and Time Zones

All times are in EDT time to prevent confusion due to time zone crossing. See the GJS3706 flight status page for this flight to view local times or setup timezone preferences in your user account.

Time Position Orientation Groundspeed Altitude Reporting Facility
EDT Latitude Longitude Course Direction KTS MPH feet Rate Location/Type
12:14PM 44.4318 -73.5502 259° West  Level Estimated
12:15PM 44.3997 -73.6760 250° West  Level FlightAware Approximate
12:15PM 44.3044 -73.2233 266° West 216 249 8,700  Level Boston Center
12:16PM 44.3860 -73.8081 255° West  Level Estimated
12:16PM 44.2956 -73.3189 263° West 257 296 11,200  Level Boston Center
12:17PM 44.3546 -73.9341 251° West  Level FlightAware Approximate
12:17PM 44.2819 -73.4317 260° West 292 336 12,700  Level Boston Center
12:18PM 44.3231 -74.0600 251° West  Level FlightAware Approximate
12:18PM 44.2706 -73.5506 262° West 310 357 14,800  Level Boston Center
12:19PM 44.2547 -73.6747 260° West 327 376 16,300 1,440 Climbing Boston Center
12:20PM 44.2383 -73.8194 261° West 337 388 17,800 1,380 Climbing Boston Center
12:21PM 44.2222 -73.9581 261° West 349 402 19,100 1,380 Climbing Boston Center
12:22PM 44.2036 -74.0994 260° West 366 421 20,600 1,320 Climbing Boston Center
12:23PM 44.1911 -74.2267 262° West 371 427 21,900 1,260 Climbing Boston Center
12:24PM 44.1744 -74.3678 261° West 371 427 23,200 1,140 Climbing Boston Center
12:25PM 44.1550 -74.5147 260° West 371 427 24,200 960 Climbing Boston Center
12:26PM 44.1378 -74.6647 261° West 384 442 25,200 960 Climbing Boston Center
12:27PM 44.1181 -74.8172 260° West 396 456 26,200 960 Climbing Boston Center
12:28PM 44.0981 -74.9697 260° West 406 467 27,200 960 Climbing Boston Center
12:29PM 44.0781 -75.1219 260° West 406 467 28,200 1,020 Climbing Boston Center
12:30PM 44.0569 -75.2975 261° West 415 478 29,300 960 Climbing Boston Center
12:31PM 44.0364 -75.4522 260° West 420 483 30,200 900 Climbing Boston Center
12:32PM 44.0175 -75.6103 261° West 420 483 31,200 960 Climbing Boston Center
12:33PM 43.9964 -75.7678 259° West 420 483 32,200 960 Climbing Boston Center
12:34PM 43.9772 -75.9256 260° West 425 489 33,200 1,020 Climbing Boston Center
12:35PM 43.9536 -76.0800 258° West 425 489 34,300 1,140 Climbing Boston Center
12:36PM 43.9403 -76.2319 263° West 413 475 35,600 1,200 Climbing Boston Center
12:37PM 43.9292 -76.3783 264° West 405 466 36,700 1,020 Climbing Boston Center
12:38PM 43.9158 -76.5217 263° West 395 455 37,600 480 Climbing Boston Center
12:40PM 43.8833 -76.7167 257° West 380 437 38,000 120 Climbing Toronto Center
12:41PM 43.8667 -76.8500 260° West 390 449 38,000  Level Toronto Center
12:42PM 43.8500 -77.0167 262° West 400 460 38,000  Level Toronto Center
12:43PM 43.8333 -77.1833 262° West 400 460 38,000  Level Toronto Center
12:44PM 43.8167 -77.3167 260° West 400 460 38,000  Level Toronto Center
12:45PM 43.8167 -77.4833 270° West 410 472 38,000  Level Toronto Center
12:46PM 43.8000 -77.6500 262° West 410 472 38,000  Level Toronto Center
12:47PM 43.7833 -77.7833 260° West 410 472 38,000  Level Toronto Center
12:48PM 43.7500 -77.9500 255° West 410 472 38,000  Level Toronto Center
12:49PM 43.7333 -78.1167 262° West 410 472 38,000  Level Toronto Center
12:50PM 43.7167 -78.2667 261° West 410 472 38,000  Level Toronto Center
12:51PM 43.7000 -78.4333 262° West 420 483 38,000  Level Toronto Center
12:52PM 43.7000 -78.6000 270° West 420 483 38,000  Level Toronto Center
12:53PM 43.6833 -78.7333 260° West 420 483 38,000  Level Toronto Center
12:54PM 43.6667 -78.9000 262° West 410 472 38,000  Level Toronto Center
12:55PM 43.6500 -79.0500 261° West 410 472 38,000  Level Toronto Center
12:56PM 43.6333 -79.2167 262° West 410 472 38,000  Level Toronto Center
12:57PM 43.6167 -79.3500 260° West 410 472 38,000  Level Toronto Center
12:58PM 43.6000 -79.5167 262° West 410 472 38,000  Level Toronto Center
12:59PM 43.5833 -79.6833 262° West 430 495 38,000  Level Toronto Center
01:00PM 43.5710 -79.8139 263° West  Level FlightAware Approximate
01:01PM 43.5500 -80.0000 263° West 400 460 38,000  Level Toronto Center
01:02PM 43.5333 -80.1333 260° West 400 460 38,000  Level Toronto Center
01:03PM 43.5333 -80.3000 270° West 390 449 38,000  Level Toronto Center
01:04PM 43.5167 -80.4333 260° West 390 449 38,000  Level Toronto Center
01:05PM 43.5000 -80.6000 262° West 390 449 38,000  Level Toronto Center
01:06PM 43.4833 -80.7333 260° West 390 449 38,000  Level Toronto Center
01:07PM 43.4333 -80.9000 248° West 400 460 38,000  Level Toronto Center
01:08PM 43.3833 -81.0333 243° Southwest 410 472 38,000  Level Toronto Center
01:09PM 43.3333 -81.1667 243° Southwest 420 483 38,000  Level Toronto Center
01:10PM 43.2667 -81.3000 236° Southwest 420 483 38,000  Level Toronto Center
01:11PM 43.2167 -81.4333 243° Southwest 420 483 38,000  Level Toronto Center
01:12PM 43.1500 -81.5833 239° Southwest 420 483 38,000  Level Toronto Center
01:13PM 43.1000 -81.7167 243° Southwest 410 472 38,000  Level Toronto Center
01:14PM 43.0500 -81.8500 243° Southwest 410 472 38,000  Level Toronto Center
01:15PM 43.0000 -82.0000 246° West 410 472 38,000  Level Toronto Center
01:16PM 43.0000 -82.1333 270° West 420 483 38,000  Level Toronto Center
01:17PM 43.0000 -82.3167 270° West 410 472 38,000  Level Toronto Center
01:18PM 43.0000 -82.4667 270° West 410 472 38,000  Level Toronto Center
01:19PM 43.0000 -82.6167 270° West 410 472 38,000 -540 Level Toronto Center
01:20PM 42.9833 -82.7833 262° West 410 472 37,000 -1,020 Descending Toronto Center
01:21PM 42.9833 -82.9333 270° West 410 472 36,000 -1,080 Descending Toronto Center
01:22PM 42.9833 -83.1000 270° West 410 472 34,900 -1,080 Descending Toronto Center
01:23PM 43.0056 -83.3031 279° West 420 483 33,500 -1,080 Descending Cleveland Center
01:24PM 43.0350 -83.4550 285° West 420 483 32,400 -780 Descending Cleveland Center
01:25PM 43.0644 -83.6069 285° West 415 478 32,000 -240 Descending Cleveland Center
01:26PM 43.0497 -83.7681 263° West 415 478 32,000  Level Cleveland Center
01:27PM 43.0183 -83.9228 255° West 419 482 32,000  Level Cleveland Center
01:28PM 42.9867 -84.0772 254° West 430 495 32,000  Level Cleveland Center
01:29PM 42.9547 -84.2344 255° West 430 495 32,000  Level Cleveland Center
01:30PM 42.9181 -84.4022 253° West 430 495 32,000  Level Cleveland Center
01:31PM 42.8853 -84.5808 256° West 429 494 32,000  Level Chicago Center
01:32PM 42.8689 -84.7383 262° West 423 487 32,000  Level Chicago Center
01:33PM 42.8531 -84.8936 262° West 416 479 32,000  Level Chicago Center
01:34PM 42.8358 -85.0497 261° West 416 479 32,000 -180 Level Chicago Center
01:35PM 42.8186 -85.2075 262° West 420 483 31,700 -1,320 Descending Chicago Center
01:36PM 42.8008 -85.3675 261° West 426 490 29,300 -2,580 Descending Chicago Center
01:37PM 42.7761 -85.5606 260° West 432 497 26,400 -2,640 Descending Chicago Center
01:38PM 42.7467 -85.7183 256° West 429 494 23,900 -2,400 Descending Chicago Center
01:39PM 42.7197 -85.8700 256° West 414 476 21,500 -1,920 Descending Chicago Center
01:40PM 42.6939 -86.0111 256° West 389 448 20,000 -780 Descending Chicago Center
01:41PM 42.6689 -86.1475 256° West 374 430 20,000  Level Chicago Center
01:42PM 42.6453 -86.2764 256° West 357 411 20,000  Level Chicago Center
01:43PM 42.6231 -86.3922 255° West 324 373 20,000  Level Chicago Center
01:44PM 42.6317 -86.5075 276° West 319 367 20,000 -120 Level Chicago Center
01:46PM 42.6806 -86.6408 297° West 326 375 19,800 -540 Descending Chicago Center
01:47PM 42.6750 -86.7603 266° West 323 372 19,000 -1,020 Descending Chicago Center
01:48PM 42.6639 -86.8706 262° West 299 344 17,800 -1,560 Descending Chicago Center
01:49PM 42.6056 -86.9531 226° Southwest 314 361 15,800 -1,980 Descending Chicago Center
01:50PM 42.5433 -87.0172 217° Southwest 288 331 13,800 -2,220 Descending Chicago Center
01:51PM 42.4853 -87.0803 219° Southwest 272 313 11,300 -2,520 Descending Chicago Center
01:52PM 42.4389 -87.1775 237° Southwest 268 308 8,600 -2,280 Descending Chicago Center
01:53PM 42.4139 -87.2669 249° West 257 296 6,700 -1,260 Descending Chicago Center
01:54PM 42.3594 -87.3217 217° Southwest 253 291 6,000 -360 Descending Chicago Center
01:55PM 42.2964 -87.3739 211° Southwest 254 292 6,000  Level Chicago Center
01:56PM 42.2367 -87.4250 212° Southwest 255 293 6,000 -540 Level Chicago Center
01:57PM 42.1775 -87.4731 211° Southwest 252 290 5,000 -1,020 Descending Chicago Center
01:58PM 42.1172 -87.5183 209° Southwest 250 288 4,000 -540 Descending Chicago Center
01:59PM 42.0644 -87.5775 220° Southwest 214 246 4,000 -300 Level Chicago Center
02:00PM 42.0333 -87.6500 240° Southwest 210 242 3,400 -780 Descending Chicago TRACON
02:01PM 42.0000 -87.7167 236° Southwest 199 229 2,300 -600 Descending Chicago TRACON
02:02PM 42.0000 -87.7833 270° West 169 194 2,300 -360 Level Chicago TRACON
02:03PM 42.0000 -87.8333 270° West 129 148 1,600 -720 Descending Chicago TRACON
02:04PM 42.0000 -87.8833 270° West 131 151 900 -720 Descending Chicago TRACON